createdAt,value
2023-05-15T00:02:18.908Z,100049.02
2023-05-15T00:04:45.837Z,100049.20
2023-05-15T00:07:12.690Z,100046.15
2023-05-15T00:09:39.425Z,100044.75
2023-05-15T00:12:06.748Z,100043.77
2023-05-15T00:14:33.653Z,100040.86
2023-05-15T00:17:00.468Z,100037.21
2023-05-15T00:19:27.308Z,100040.65
2023-05-15T00:21:54.108Z,100044.90
2023-05-15T00:24:21.704Z,100042.61
2023-05-15T00:26:48.543Z,100044.50
2023-05-15T00:29:15.374Z,100040.39
2023-05-15T00:31:42.189Z,100043.05
2023-05-15T00:34:09.043Z,100042.98
2023-05-15T00:36:37.683Z,100044.40
2023-05-15T00:39:05.199Z,100041.78
2023-05-15T00:41:32.681Z,100042.41
2023-05-15T00:44:00.723Z,100040.77
2023-05-15T00:46:28.090Z,100039.09
2023-05-15T00:49:47.458Z,100036.05
2023-05-15T00:52:14.336Z,100038.18
2023-05-15T00:54:41.191Z,100036.41
2023-05-15T00:57:08.610Z,100037.38
2023-05-15T00:59:36.582Z,100036.39
2023-05-15T01:02:04.245Z,100034.27
2023-05-15T01:04:31.651Z,100029.63
2023-05-15T01:06:58.462Z,100023.05
2023-05-15T01:09:27.681Z,100024.17
2023-05-15T01:11:55.075Z,100024.91
2023-05-15T01:14:21.945Z,100027.52
2023-05-15T01:16:48.739Z,100025.55
2023-05-15T01:19:15.805Z,100028.60
2023-05-15T01:22:05.187Z,100026.06
2023-05-15T01:24:51.167Z,100025.31
2023-05-15T01:27:37.330Z,100028.36
2023-05-15T01:30:22.555Z,100031.08
2023-05-15T01:33:17.341Z,100027.23
2023-05-15T01:35:47.280Z,100025.39
2023-05-15T01:38:33.763Z,100028.67
2023-05-15T01:41:06.772Z,100028.36
2023-05-15T01:43:33.688Z,100028.45
2023-05-15T01:46:01.574Z,100030.59
2023-05-15T01:48:28.475Z,100028.60
2023-05-15T01:50:58.208Z,100031.45
2023-05-15T01:53:25.466Z,100027.40
2023-05-15T01:55:52.390Z,100026.89
2023-05-15T01:58:19.163Z,100023.76
2023-05-15T02:00:45.924Z,100027.73
2023-05-15T02:03:12.804Z,100026.02
2023-05-15T02:05:40.801Z,100025.23
2023-05-15T02:08:07.533Z,100022.81
2023-05-15T02:10:34.359Z,100018.60
2023-05-15T02:13:01.102Z,100020.34
2023-05-15T02:15:28.460Z,100021.90
2023-05-15T02:17:55.321Z,100020.17
2023-05-15T02:20:22.171Z,100020.04
2023-05-15T02:22:48.949Z,100022.69
2023-05-15T02:25:16.151Z,100022.46
2023-05-15T02:27:48.786Z,100025.21
2023-05-15T02:30:35.649Z,100024.44
2023-05-15T02:33:20.842Z,100023.89
2023-05-15T02:36:04.034Z,100018.70
2023-05-15T02:38:45.201Z,100024.58
2023-05-15T02:41:12.908Z,100024.77
2023-05-15T02:43:39.917Z,100027.23
2023-05-15T02:46:07.693Z,100029.84
2023-05-15T02:48:35.773Z,100029.59
2023-05-15T02:51:02.546Z,100030.73
2023-05-15T02:53:29.472Z,100028.78
2023-05-15T02:55:56.350Z,100021.67
2023-05-15T02:58:23.173Z,100020.67
2023-05-15T03:00:50.029Z,100016.46
2023-05-15T03:03:16.894Z,100017.02
2023-05-15T03:05:43.646Z,100016.66
2023-05-15T03:08:10.452Z,100020.34
2023-05-15T03:10:37.270Z,100020.64
2023-05-15T03:13:04.070Z,100020.04
2023-05-15T03:15:30.863Z,100018.15
2023-05-15T03:17:57.929Z,100015.52
2023-05-15T03:20:24.974Z,100014.98
2023-05-15T03:22:51.755Z,100015.42
2023-05-15T03:25:18.609Z,100011.90
2023-05-15T03:27:45.381Z,100010.85
2023-05-15T03:30:12.387Z,100011.22
2023-05-15T03:32:39.213Z,100013.93
2023-05-15T03:35:06.589Z,100016.71
2023-05-15T03:37:33.400Z,100017.21
2023-05-15T03:40:00.200Z,100019.69
2023-05-15T03:42:28.130Z,100017.92
2023-05-15T03:44:56.231Z,100016.22
2023-05-15T03:47:23.412Z,100021.24
2023-05-15T03:49:52.904Z,100024.90
2023-05-15T03:52:19.705Z,100025.77
2023-05-15T03:54:46.648Z,100027.10
2023-05-15T03:57:13.438Z,100032.20
2023-05-15T03:59:40.226Z,100030.94
2023-05-15T04:02:07.135Z,100031.85
2023-05-15T04:04:33.946Z,100033.63
2023-05-15T04:07:01.152Z,100032.98
2023-05-15T04:09:27.994Z,100026.49
2023-05-15T04:11:54.772Z,100025.11
2023-05-15T04:14:21.502Z,100021.67
2023-05-15T04:16:48.469Z,100023.74
2023-05-15T04:19:15.828Z,100024.61
2023-05-15T04:21:42.681Z,100025.39
2023-05-15T04:24:09.470Z,100026.00
2023-05-15T04:26:36.812Z,100024.44
2023-05-15T04:29:04.892Z,100026.83
2023-05-15T04:31:32.237Z,100024.75
2023-05-15T04:33:59.298Z,100024.55
2023-05-15T04:36:26.030Z,100021.45
2023-05-15T04:38:52.856Z,100017.48
2023-05-15T04:41:19.679Z,100014.92
2023-05-15T04:43:46.514Z,100013.73
2023-05-15T04:46:13.347Z,100010.52
2023-05-15T04:48:40.150Z,100012.13
2023-05-15T04:51:07.717Z,100012.16
2023-05-15T04:53:34.562Z,100012.70
2023-05-15T04:56:01.451Z,100013.17
2023-05-15T04:58:28.234Z,100011.35
2023-05-15T05:00:55.002Z,100011.15
2023-05-15T05:03:21.873Z,100005.86
2023-05-15T05:05:49.188Z,100004.00
2023-05-15T05:08:16.050Z,100003.70
2023-05-15T05:10:42.903Z,100001.92
2023-05-15T05:13:09.673Z,100000.33
2023-05-15T05:15:37.328Z,100001.84
2023-05-15T05:18:04.601Z,99998.58
2023-05-15T05:20:31.415Z,99993.84
2023-05-15T05:22:58.171Z,99991.80
2023-05-15T05:25:25.304Z,99992.13
2023-05-15T05:27:52.453Z,99990.70
2023-05-15T05:30:19.241Z,99991.48
2023-05-15T05:32:46.039Z,99996.13
2023-05-15T05:35:12.837Z,99996.70
2023-05-15T05:37:41.229Z,99998.15
2023-05-15T05:40:09.395Z,99991.91
2023-05-15T05:42:36.172Z,99990.50
2023-05-15T05:45:03.003Z,99991.08
2023-05-15T05:47:29.890Z,99989.73
2023-05-15T05:49:56.687Z,99982.65
2023-05-15T05:52:23.583Z,99982.71
2023-05-15T05:54:50.429Z,99984.53
2023-05-15T05:57:17.209Z,99983.15
2023-05-15T05:59:44.041Z,99985.88
2023-05-15T06:02:11.561Z,99982.17
2023-05-15T06:04:38.608Z,99979.41
2023-05-15T06:07:05.442Z,99978.06
2023-05-15T06:09:32.848Z,99978.17
2023-05-15T06:12:00.790Z,99976.09
2023-05-15T06:14:27.585Z,99979.50
2023-05-15T06:16:54.505Z,99975.53
2023-05-15T06:19:22.393Z,99974.60
2023-05-15T06:21:49.762Z,99974.61
2023-05-15T06:24:16.552Z,99971.70
2023-05-15T06:26:43.286Z,99972.36
2023-05-15T06:29:10.166Z,99973.96
2023-05-15T06:31:36.933Z,99969.55
2023-05-15T06:34:03.674Z,99969.55
2023-05-15T06:36:30.437Z,99967.60
2023-05-15T06:38:57.132Z,99969.39
2023-05-15T06:41:23.903Z,99967.36
2023-05-15T06:43:50.988Z,99958.20
2023-05-15T06:46:19.243Z,99957.84
2023-05-15T06:48:49.541Z,99958.20
2023-05-15T06:51:16.373Z,99955.51
2023-05-15T06:53:43.153Z,99962.34
2023-05-15T06:56:09.991Z,99960.50
2023-05-15T06:58:36.805Z,99961.02
2023-05-15T07:01:04.084Z,99958.77
2023-05-15T07:03:30.870Z,99959.73
2023-05-15T07:05:57.619Z,99956.61
2023-05-15T07:08:24.422Z,99954.98
2023-05-15T07:10:51.525Z,99956.21
2023-05-15T07:13:18.353Z,99961.92
2023-05-15T07:15:45.316Z,99960.29
2023-05-15T07:18:12.261Z,99959.23
2023-05-15T07:20:39.634Z,99960.52
2023-05-15T07:23:06.659Z,99959.77
2023-05-15T07:25:46.093Z,99957.73
2023-05-15T07:28:18.331Z,99947.36
2023-05-15T07:30:45.446Z,99959.42
2023-05-15T07:33:12.233Z,99952.66
2023-05-15T07:35:38.994Z,99950.80
2023-05-15T07:38:05.853Z,99946.46
2023-05-15T07:40:33.138Z,99947.25
2023-05-15T07:43:00.142Z,99950.23
2023-05-15T07:45:27.286Z,99946.15
2023-05-15T07:47:54.516Z,99950.65
2023-05-15T07:50:21.460Z,99952.17
2023-05-15T07:52:48.224Z,99944.77
2023-05-15T07:55:15.092Z,99936.25
2023-05-15T07:57:42.028Z,99934.99
2023-05-15T08:00:12.911Z,99934.14
2023-05-15T08:02:41.168Z,99930.16
2023-05-15T08:05:08.374Z,99931.13
2023-05-15T08:07:35.671Z,99927.96
2023-05-15T08:10:04.516Z,99927.52
2023-05-15T08:12:31.315Z,99926.94
2023-05-15T08:14:58.158Z,99921.52
2023-05-15T08:17:25.063Z,99917.40
2023-05-15T08:19:52.493Z,99917.96
2023-05-15T08:22:19.367Z,99913.31
2023-05-15T08:24:46.085Z,99910.29
2023-05-15T08:27:12.928Z,99912.13
2023-05-15T08:29:40.198Z,99908.51
2023-05-15T08:32:08.706Z,99907.05
2023-05-15T08:34:35.633Z,99908.89
2023-05-15T08:37:02.430Z,99908.35
2023-05-15T08:39:29.191Z,99912.55
2023-05-15T08:42:06.073Z,99909.31
2023-05-15T08:44:32.870Z,99908.08
2023-05-15T08:46:59.809Z,99910.30
2023-05-15T08:49:54.493Z,99907.38
2023-05-15T08:52:21.473Z,99901.34
2023-05-15T08:54:48.614Z,99895.69
2023-05-15T08:57:15.752Z,99900.80
2023-05-15T08:59:42.484Z,99902.60
2023-05-15T09:02:09.490Z,99895.17
2023-05-15T09:04:36.447Z,99893.76
2023-05-15T09:07:03.623Z,99892.89
2023-05-15T09:09:30.958Z,99895.93
2023-05-15T09:11:57.730Z,99901.41
2023-05-15T09:14:24.455Z,99889.62
2023-05-15T09:16:53.531Z,99894.71
2023-05-15T09:19:21.991Z,99893.17
2023-05-15T09:21:49.597Z,99888.91
2023-05-15T09:24:20.029Z,99881.27
2023-05-15T09:26:47.858Z,99884.45
2023-05-15T09:29:18.926Z,99883.30
2023-05-15T09:31:49.082Z,99874.30
2023-05-15T09:34:16.055Z,99876.00
2023-05-15T09:36:45.053Z,99878.98
2023-05-15T09:39:12.276Z,99875.40
2023-05-15T09:41:42.502Z,99880.58
2023-05-15T09:44:21.244Z,99871.03
2023-05-15T09:46:48.863Z,99880.35
2023-05-15T09:49:15.968Z,99874.23
2023-05-15T09:51:44.361Z,99873.48
2023-05-15T09:54:15.903Z,99882.49
2023-05-15T09:56:47.178Z,99874.06
2023-05-15T09:59:18.348Z,99878.07
2023-05-15T10:01:46.507Z,99883.67
2023-05-15T10:04:14.019Z,99876.05
2023-05-15T10:06:43.180Z,99869.99
2023-05-15T10:09:11.364Z,99872.34
2023-05-15T10:11:40.431Z,99869.52
2023-05-15T10:14:09.272Z,99862.71
2023-05-15T10:16:36.838Z,99861.91
2023-05-15T10:19:05.365Z,99860.82
2023-05-15T10:21:33.900Z,99858.22
2023-05-15T10:24:01.316Z,99855.13
2023-05-15T10:26:39.039Z,99846.77
2023-05-15T10:29:08.261Z,99853.23
2023-05-15T10:31:36.529Z,99857.65
2023-05-15T10:34:06.759Z,99867.43
2023-05-15T10:36:34.268Z,99855.25
2023-05-15T10:39:02.130Z,99852.30
2023-05-15T10:41:29.595Z,99847.49
2023-05-15T10:43:58.593Z,99840.65
2023-05-15T10:46:26.445Z,99845.21
2023-05-15T10:48:53.422Z,99841.80
2023-05-15T10:51:28.196Z,99827.93
2023-05-15T10:53:56.067Z,99824.98
2023-05-15T10:56:27.301Z,99822.27
2023-05-15T10:58:55.148Z,99822.13
2023-05-15T11:01:32.846Z,99823.98
2023-05-15T11:04:06.815Z,99819.34
2023-05-15T11:06:34.086Z,99821.73
2023-05-15T11:09:37.408Z,99808.27
2023-05-15T11:12:06.110Z,99809.12
2023-05-15T11:14:36.157Z,99812.06
2023-05-15T11:17:04.556Z,99817.05
2023-05-15T11:19:33.419Z,99806.38
2023-05-15T11:22:15.910Z,99795.94
2023-05-15T11:24:53.436Z,99792.23
2023-05-15T11:27:22.459Z,99796.44
2023-05-15T11:30:22.539Z,99780.35
2023-05-15T11:32:57.281Z,99776.98
2023-05-15T11:35:45.113Z,99774.52
2023-05-15T11:38:39.879Z,99768.78
2023-05-15T11:41:17.566Z,99766.88
2023-05-15T11:43:44.338Z,99770.33
2023-05-15T11:46:12.774Z,99769.92
2023-05-15T11:48:39.814Z,99771.67
2023-05-15T11:51:31.728Z,99765.73
2023-05-15T11:53:58.586Z,99756.23
2023-05-15T11:56:29.897Z,99772.58
2023-05-15T11:58:59.042Z,99766.97
2023-05-15T12:01:25.800Z,99754.48
2023-05-15T12:03:54.760Z,99750.09
2023-05-15T12:06:21.978Z,99746.34
2023-05-15T12:08:52.877Z,99750.60
2023-05-15T12:11:24.087Z,99749.33
2023-05-15T12:13:52.847Z,99742.52
2023-05-15T12:16:23.671Z,99736.80
2023-05-15T12:18:50.689Z,99746.48
2023-05-15T12:21:17.551Z,99745.23
2023-05-15T12:24:06.323Z,99733.17
2023-05-15T12:26:34.759Z,99725.74
2023-05-15T12:29:02.466Z,99724.80
2023-05-15T12:31:29.632Z,99723.48
2023-05-15T12:33:56.728Z,99722.99
2023-05-15T12:36:23.536Z,99716.89
2023-05-15T12:38:50.786Z,99721.20
2023-05-15T12:41:19.999Z,99720.97
2023-05-15T12:43:46.938Z,99725.08
2023-05-15T12:46:14.403Z,99725.17
2023-05-15T12:48:41.347Z,99720.31
2023-05-15T12:51:08.384Z,99714.90
2023-05-15T12:53:35.347Z,99722.74
2023-05-15T12:56:02.212Z,99722.98
2023-05-15T12:58:29.123Z,99725.51
2023-05-15T13:00:56.984Z,99726.98
2023-05-15T13:03:24.510Z,99717.59
2023-05-15T13:07:36.204Z,99723.67
2023-05-15T13:10:06.803Z,99724.45
2023-05-15T13:12:45.370Z,99733.13
2023-05-15T13:15:32.580Z,99726.98
2023-05-15T13:18:00.670Z,99719.91
2023-05-15T13:20:48.737Z,99723.80
2023-05-15T13:23:16.945Z,99729.17
2023-05-15T13:25:44.152Z,99734.73
2023-05-15T13:28:11.085Z,99724.40
2023-05-15T13:30:41.622Z,99724.05
2023-05-15T13:33:09.541Z,99715.58
2023-05-15T13:35:36.942Z,99716.77
2023-05-15T13:38:04.394Z,99717.40
2023-05-15T13:40:33.556Z,99719.48
2023-05-15T13:43:00.397Z,99725.23
2023-05-15T13:45:27.258Z,99727.55
2023-05-15T13:47:55.237Z,99726.68
2023-05-15T13:50:22.061Z,99717.23
2023-05-15T13:52:49.033Z,99718.73
2023-05-15T13:55:16.812Z,99717.52
2023-05-15T13:57:43.760Z,99707.18
2023-05-15T14:00:13.268Z,99705.17
2023-05-15T14:02:41.162Z,99698.23
2023-05-15T14:05:09.360Z,99698.46
2023-05-15T14:07:36.188Z,99699.82
2023-05-15T14:10:06.325Z,99696.94
2023-05-15T14:12:33.321Z,99696.23
2023-05-15T14:15:00.769Z,99693.29
2023-05-15T14:17:28.211Z,99691.50
2023-05-15T14:19:55.114Z,99692.23
2023-05-15T14:22:25.050Z,99690.98
2023-05-15T14:24:52.921Z,99691.88
2023-05-15T14:27:19.810Z,99693.19
2023-05-15T14:29:48.419Z,99693.70
2023-05-15T14:32:16.281Z,99695.51
2023-05-15T14:34:43.334Z,99689.95
2023-05-15T14:37:10.221Z,99684.65
2023-05-15T14:39:37.232Z,99685.60
2023-05-15T14:42:04.273Z,99689.81
2023-05-15T14:44:31.086Z,99685.80
2023-05-15T14:47:12.886Z,99686.77
2023-05-15T14:49:39.831Z,99684.18
2023-05-15T14:52:10.159Z,99671.51
2023-05-15T14:54:37.817Z,99681.83
2023-05-15T14:57:04.873Z,99669.64
2023-05-15T14:59:31.713Z,99667.16
2023-05-15T15:01:58.638Z,99667.20
2023-05-15T15:04:26.926Z,99658.98
2023-05-15T15:06:57.109Z,99660.18
2023-05-15T15:09:25.237Z,99666.55
2023-05-15T15:11:52.830Z,99656.92
2023-05-15T15:14:20.033Z,99648.55
2023-05-15T15:16:47.750Z,99660.14
2023-05-15T15:19:16.773Z,99657.70
2023-05-15T15:21:45.121Z,99651.94
2023-05-15T15:24:12.100Z,99653.58
2023-05-15T15:26:40.105Z,99650.63
2023-05-15T15:29:07.327Z,99648.46
2023-05-15T15:31:34.226Z,99644.42
2023-05-15T15:34:03.718Z,99646.30
2023-05-15T15:36:32.483Z,99645.43
2023-05-15T15:38:59.312Z,99647.61
2023-05-15T15:41:26.164Z,99646.02
2023-05-15T15:43:53.930Z,99646.36
2023-05-15T15:46:20.827Z,99650.65
2023-05-15T15:48:48.607Z,99650.60
2023-05-15T15:51:16.399Z,99650.16
2023-05-15T15:53:43.365Z,99650.97
2023-05-15T15:56:10.141Z,99647.27
2023-05-15T15:58:37.240Z,99643.83
2023-05-15T16:01:04.276Z,99646.77
2023-05-15T16:03:31.629Z,99647.09
2023-05-15T16:06:00.349Z,99641.15
2023-05-15T16:08:27.596Z,99639.94
2023-05-15T16:10:55.186Z,99641.95
2023-05-15T16:13:22.192Z,99639.11
2023-05-15T16:15:51.128Z,99642.20
2023-05-15T16:18:17.974Z,99642.20
2023-05-15T16:20:45.151Z,99643.30
2023-05-15T16:23:15.204Z,99641.58
2023-05-15T16:25:43.220Z,99640.02
2023-05-15T16:28:10.380Z,99637.52
2023-05-15T16:30:48.021Z,99643.02
2023-05-15T16:33:17.688Z,99637.23
2023-05-15T16:35:45.055Z,99643.63
2023-05-15T16:38:11.911Z,99643.55
2023-05-15T16:40:39.143Z,99642.62
2023-05-15T16:43:06.113Z,99642.63
2023-05-15T16:45:33.038Z,99643.97
2023-05-15T16:48:00.129Z,99641.02
2023-05-15T16:50:27.374Z,99640.16
2023-05-15T16:52:54.399Z,99638.08
2023-05-15T16:55:22.003Z,99635.61
2023-05-15T16:57:48.953Z,99637.27
2023-05-15T17:00:17.084Z,99632.40
2023-05-15T17:02:45.874Z,99629.75
2023-05-15T17:05:14.172Z,99624.89
2023-05-15T17:07:42.104Z,99626.70
2023-05-15T17:10:11.145Z,99627.72
2023-05-15T17:12:38.389Z,99634.98
2023-05-15T17:15:09.562Z,99637.45
2023-05-15T17:17:36.721Z,99641.33
2023-05-15T17:20:06.168Z,99642.36
2023-05-15T17:22:32.962Z,99644.92
2023-05-15T17:25:00.521Z,99645.67
2023-05-15T17:27:28.607Z,99650.55
2023-05-15T17:29:55.481Z,99651.48
2023-05-15T17:32:23.165Z,99651.92
2023-05-15T17:34:52.708Z,99657.82
2023-05-15T17:37:20.959Z,99658.94
2023-05-15T17:39:48.991Z,99659.89
2023-05-15T17:42:16.058Z,99665.52
2023-05-15T17:44:43.311Z,99666.73
2023-05-15T17:47:10.405Z,99670.15
2023-05-15T17:49:38.096Z,99668.73
2023-05-15T17:52:06.219Z,99674.57
2023-05-15T17:54:33.239Z,99676.28
2023-05-15T17:57:00.408Z,99683.52
2023-05-15T17:59:27.614Z,99687.62
2023-05-15T18:01:54.999Z,99689.61
2023-05-15T18:04:22.076Z,99689.04
2023-05-15T18:06:50.188Z,99692.70
2023-05-15T18:09:17.885Z,99693.27
2023-05-15T18:11:44.679Z,99691.91
2023-05-15T18:14:11.536Z,99695.55
2023-05-15T18:16:38.680Z,99695.71
2023-05-15T18:19:05.639Z,99698.57
2023-05-15T18:21:33.745Z,99698.23
2023-05-15T18:24:01.970Z,99706.30
2023-05-15T18:26:31.171Z,99709.51
2023-05-15T18:28:57.970Z,99712.23
2023-05-15T18:31:25.055Z,99712.49
2023-05-15T18:33:52.744Z,99713.02
2023-05-15T18:36:19.528Z,99715.60
2023-05-15T18:38:46.342Z,99716.50
2023-05-15T18:41:13.204Z,99723.38
2023-05-15T18:43:40.001Z,99723.54
2023-05-15T18:46:06.784Z,99725.39
2023-05-15T18:48:33.507Z,99732.79
2023-05-15T18:51:00.302Z,99732.98
2023-05-15T18:53:27.140Z,99729.39
2023-05-15T18:55:53.875Z,99726.94
2023-05-15T18:58:20.720Z,99725.34
2023-05-15T19:00:47.703Z,99727.67
2023-05-15T19:03:14.817Z,99728.36
2023-05-15T19:05:41.799Z,99728.71
2023-05-15T19:08:08.716Z,99726.45
2023-05-15T19:10:35.618Z,99723.90
2023-05-15T19:13:02.398Z,99717.64
2023-05-15T19:15:29.282Z,99717.75
2023-05-15T19:17:57.761Z,99719.42
2023-05-15T19:20:26.018Z,99723.80
2023-05-15T19:22:53.038Z,99722.83
2023-05-15T19:25:20.206Z,99717.38
2023-05-15T19:27:47.070Z,99725.13
2023-05-15T19:30:14.119Z,99728.09
2023-05-15T19:32:41.633Z,99729.21
2023-05-15T19:35:10.439Z,99729.33
2023-05-15T19:37:37.706Z,99729.10
2023-05-15T19:40:06.108Z,99728.99
2023-05-15T19:42:33.148Z,99730.54
2023-05-15T19:45:00.118Z,99734.21
2023-05-15T19:47:27.482Z,99737.34
2023-05-15T19:49:54.486Z,99737.81
2023-05-15T19:52:21.346Z,99742.90
2023-05-15T19:54:48.078Z,99742.26
2023-05-15T19:57:15.505Z,99746.63
2023-05-15T19:59:42.303Z,99751.71
2023-05-15T20:02:10.667Z,99751.44
2023-05-15T20:04:37.732Z,99750.33
2023-05-15T20:07:04.771Z,99752.72
2023-05-15T20:09:31.593Z,99749.03
2023-05-15T20:11:58.441Z,99754.73
2023-05-15T20:14:25.779Z,99753.28
2023-05-15T20:16:52.636Z,99752.73
2023-05-15T20:19:22.022Z,99755.05
2023-05-15T20:21:49.187Z,99755.68
2023-05-15T20:24:17.551Z,99756.77
2023-05-15T20:26:44.504Z,99766.92
2023-05-15T20:29:11.410Z,99766.97
2023-05-15T20:31:40.571Z,99768.24
2023-05-15T20:34:08.605Z,99771.80
2023-05-15T20:36:36.100Z,99771.09
2023-05-15T20:39:05.942Z,99770.73
2023-05-15T20:41:37.208Z,99773.88
2023-05-15T20:44:04.755Z,99774.19
2023-05-15T20:46:32.020Z,99771.35
2023-05-15T20:48:59.160Z,99770.73
2023-05-15T20:51:25.957Z,99770.04
2023-05-15T20:53:52.827Z,99765.20
2023-05-15T20:56:19.639Z,99760.33
2023-05-15T20:58:46.483Z,99765.23
2023-05-15T21:01:13.553Z,99765.42
2023-05-15T21:03:40.869Z,99766.95
2023-05-15T21:06:08.480Z,99768.86
2023-05-15T21:08:35.536Z,99772.66
2023-05-15T21:11:02.415Z,99772.31
2023-05-15T21:13:29.432Z,99772.98
2023-05-15T21:15:56.283Z,99771.09
2023-05-15T21:18:23.886Z,99766.39
2023-05-15T21:20:50.676Z,99762.50
2023-05-15T21:23:18.571Z,99765.17
2023-05-15T21:25:45.336Z,99766.30
2023-05-15T21:28:13.019Z,99765.07
2023-05-15T21:30:39.878Z,99763.52
2023-05-15T21:33:06.726Z,99762.45
2023-05-15T21:35:33.712Z,99763.16
2023-05-15T21:38:00.796Z,99766.26
2023-05-15T21:40:27.844Z,99770.81
2023-05-15T21:42:54.989Z,99767.69
2023-05-15T21:45:21.926Z,99778.09
2023-05-15T21:47:48.892Z,99778.21
2023-05-15T21:50:15.842Z,99781.94
2023-05-15T21:52:42.614Z,99780.02
2023-05-15T21:55:09.661Z,99781.25
2023-05-15T21:57:36.586Z,99781.76
2023-05-15T22:00:04.339Z,99781.66
2023-05-15T22:02:32.590Z,99777.95
2023-05-15T22:04:59.415Z,99776.29
2023-05-15T22:07:26.319Z,99774.55
2023-05-15T22:09:53.434Z,99765.83
2023-05-15T22:12:20.220Z,99769.05
2023-05-15T22:14:58.298Z,99766.91
2023-05-15T22:17:27.169Z,99774.89
2023-05-15T22:19:54.223Z,99768.65
2023-05-15T22:22:21.095Z,99768.96
2023-05-15T22:24:48.009Z,99766.99
2023-05-15T22:27:16.826Z,99766.19
2023-05-15T22:29:43.748Z,99767.45
2023-05-15T22:32:10.823Z,99774.77
2023-05-15T22:34:37.626Z,99770.49
2023-05-15T22:37:04.602Z,99771.02
2023-05-15T22:39:31.411Z,99769.34
2023-05-15T22:41:58.264Z,99766.98
2023-05-15T22:44:25.031Z,99764.86
2023-05-15T22:46:52.408Z,99762.56
2023-05-15T22:49:25.451Z,99758.77
2023-05-15T22:51:53.608Z,99755.55
2023-05-15T22:54:22.078Z,99747.39
2023-05-15T22:56:53.461Z,99748.06
2023-05-15T22:59:21.005Z,99749.54
2023-05-15T23:01:49.178Z,99745.23
2023-05-15T23:04:16.956Z,99744.92
2023-05-15T23:06:43.928Z,99740.16
2023-05-15T23:09:10.741Z,99739.39
2023-05-15T23:11:38.050Z,99735.98
2023-05-15T23:14:04.959Z,99734.27
2023-05-15T23:16:31.906Z,99730.85
2023-05-15T23:18:58.830Z,99730.81
2023-05-15T23:21:26.232Z,99724.33
2023-05-15T23:23:53.232Z,99719.42
2023-05-15T23:26:20.091Z,99720.21
2023-05-15T23:28:47.273Z,99717.63
2023-05-15T23:31:14.219Z,99719.79
2023-05-15T23:33:41.249Z,99715.61
2023-05-15T23:36:08.991Z,99710.37
2023-05-15T23:38:35.869Z,99706.08
2023-05-15T23:41:02.700Z,99709.02
2023-05-15T23:43:29.768Z,99702.68
2023-05-15T23:45:56.546Z,99704.56
2023-05-15T23:48:23.369Z,99712.53
2023-05-15T23:50:50.190Z,99707.34
2023-05-15T23:53:16.948Z,99703.75
2023-05-15T23:55:43.801Z,99707.23
2023-05-15T23:58:10.899Z,99712.20
